createdAt,value
2018-07-10T00:02:32.761Z,3.75
2018-07-10T00:07:28.401Z,6.30
2018-07-10T00:10:13.560Z,4.03
2018-07-10T00:12:42.037Z,4.28
2018-07-10T00:15:10.481Z,4.05
2018-07-10T00:17:38.616Z,7.08
2018-07-10T00:20:07.124Z,3.50
2018-07-10T00:22:35.853Z,5.37
2018-07-10T00:25:04.323Z,5.30
2018-07-10T00:27:32.993Z,4.03
2018-07-10T00:30:01.483Z,4.95
2018-07-10T00:32:29.926Z,4.10
2018-07-10T00:34:58.481Z,6.15
2018-07-10T00:37:26.973Z,3.55
2018-07-10T00:39:55.605Z,4.03
2018-07-10T00:42:24.096Z,5.75
2018-07-10T00:44:52.568Z,4.08
2018-07-10T00:47:21.000Z,4.35
2018-07-10T00:49:49.531Z,3.95
2018-07-10T00:52:32.732Z,4.37
2018-07-10T00:55:01.705Z,4.97
2018-07-10T00:57:31.814Z,3.58
2018-07-10T01:00:00.601Z,5.58
2018-07-10T01:02:29.048Z,3.58
2018-07-10T01:04:57.532Z,5.58
2018-07-10T01:07:26.005Z,3.15
2018-07-10T01:09:54.634Z,4.30
2018-07-10T01:12:23.157Z,4.35
2018-07-10T01:14:51.698Z,4.75
2018-07-10T01:17:20.146Z,7.15
2018-07-10T01:19:48.685Z,3.75
2018-07-10T01:22:17.183Z,4.78
2018-07-10T01:24:45.736Z,3.65
2018-07-10T01:27:14.570Z,5.85
2018-07-10T01:29:48.948Z,3.45
2018-07-10T01:32:17.849Z,5.20
2018-07-10T01:34:46.329Z,5.45
2018-07-10T01:37:15.067Z,3.52
2018-07-10T01:39:43.248Z,3.65
2018-07-10T01:42:11.715Z,4.28
2018-07-10T01:44:40.261Z,5.70
2018-07-10T01:47:08.786Z,5.37
2018-07-10T01:49:37.326Z,5.03
2018-07-10T01:52:05.895Z,4.95
2018-07-10T01:54:34.406Z,4.33
2018-07-10T01:57:03.261Z,3.47
2018-07-10T01:59:32.083Z,2.92
2018-07-10T02:02:00.590Z,5.45
2018-07-10T02:04:29.329Z,4.55
2018-07-10T02:06:57.834Z,3.27
2018-07-10T02:09:26.384Z,4.30
2018-07-10T02:11:55.104Z,4.58
2018-07-10T02:14:23.556Z,5.17
2018-07-10T02:16:52.057Z,3.65
2018-07-10T02:19:21.600Z,3.37
2018-07-10T02:21:50.119Z,3.15
2018-07-10T02:24:22.021Z,5.40
2018-07-10T02:26:50.933Z,3.00
2018-07-10T02:29:19.977Z,3.98
2018-07-10T02:31:49.199Z,3.72
2018-07-10T02:34:17.706Z,4.00
2018-07-10T02:36:46.297Z,4.22
2018-07-10T02:39:15.570Z,3.67
2018-07-10T02:41:44.122Z,5.22
2018-07-10T02:44:12.766Z,4.80
2018-07-10T02:46:41.314Z,3.15
2018-07-10T02:49:15.371Z,3.10
2018-07-10T02:51:48.105Z,3.30
2018-07-10T02:54:17.262Z,9.78
2018-07-10T02:56:47.330Z,5.92
2018-07-10T02:59:15.993Z,3.98
2018-07-10T03:01:44.521Z,3.33
2018-07-10T03:04:13.017Z,3.75
2018-07-10T03:06:43.372Z,3.65
2018-07-10T03:09:13.468Z,8.30
2018-07-10T03:11:41.985Z,3.10
2018-07-10T03:14:10.561Z,4.53
2018-07-10T03:16:39.476Z,3.08
2018-07-10T03:19:09.836Z,4.90
2018-07-10T03:21:38.341Z,5.33
2018-07-10T03:24:06.956Z,4.08
2018-07-10T03:26:35.645Z,4.12
2018-07-10T03:29:04.108Z,5.78
2018-07-10T03:31:32.641Z,4.03
2018-07-10T03:34:01.144Z,5.28
2018-07-10T03:36:29.784Z,5.12
2018-07-10T03:38:58.233Z,4.28
2018-07-10T03:41:26.764Z,3.35
2018-07-10T03:43:55.432Z,4.33
2018-07-10T03:46:24.042Z,4.10
2018-07-10T03:48:52.560Z,5.47
2018-07-10T03:51:21.103Z,3.83
2018-07-10T03:53:49.382Z,4.12
2018-07-10T03:56:18.909Z,3.67
2018-07-10T03:58:49.966Z,5.17
2018-07-10T04:01:18.480Z,5.87
2018-07-10T04:03:47.011Z,3.87
2018-07-10T04:06:16.180Z,4.70
2018-07-10T04:08:45.490Z,4.25
2018-07-10T04:11:14.244Z,4.87
2018-07-10T04:13:42.782Z,5.33
2018-07-10T04:16:11.263Z,2.98
2018-07-10T04:18:39.790Z,5.75
2018-07-10T04:21:20.065Z,3.27
2018-07-10T04:23:54.480Z,3.45
2018-07-10T04:26:23.652Z,5.12
2018-07-10T04:28:59.601Z,3.17
2018-07-10T04:31:33.866Z,3.80
2018-07-10T04:34:02.519Z,3.45
2018-07-10T04:36:31.133Z,3.02
2018-07-10T04:38:59.652Z,5.83
2018-07-10T04:41:30.165Z,2.83
2018-07-10T04:44:09.003Z,4.50
2018-07-10T04:46:40.830Z,4.65
2018-07-10T04:49:32.795Z,3.45
2018-07-10T04:52:08.921Z,2.98
2018-07-10T04:54:47.548Z,3.27
2018-07-10T04:57:19.349Z,3.98
2018-07-10T04:59:47.933Z,4.70
2018-07-10T05:02:16.517Z,6.30
2018-07-10T05:04:45.083Z,5.30
2018-07-10T05:07:13.740Z,5.95
2018-07-10T05:09:42.525Z,4.37
2018-07-10T05:12:11.103Z,3.77
2018-07-10T05:14:42.665Z,5.00
2018-07-10T05:17:11.178Z,3.92
2018-07-10T05:19:39.707Z,4.53
2018-07-10T05:22:08.224Z,4.55
2018-07-10T05:24:37.249Z,3.80
2018-07-10T05:27:05.744Z,4.33
2018-07-10T05:29:34.311Z,3.87
2018-07-10T05:32:03.616Z,6.42
2018-07-10T05:34:34.100Z,3.47
2018-07-10T05:37:02.638Z,4.72
2018-07-10T05:39:33.096Z,2.45
2018-07-10T05:42:01.976Z,3.42
2018-07-10T05:44:31.341Z,2.98
2018-07-10T05:47:01.676Z,4.47
2018-07-10T05:49:32.401Z,3.77
2018-07-10T05:52:01.078Z,3.72
2018-07-10T05:54:29.593Z,5.20
2018-07-10T05:56:58.079Z,4.30
2018-07-10T05:59:26.614Z,4.22
2018-07-10T06:01:55.880Z,3.75
2018-07-10T06:04:24.440Z,7.22
2018-07-10T06:06:52.972Z,3.67
2018-07-10T06:09:21.517Z,7.90
2018-07-10T06:11:50.029Z,6.92
2018-07-10T06:14:18.620Z,4.20
2018-07-10T06:16:47.153Z,4.50
2018-07-10T06:19:16.552Z,6.92
2018-07-10T06:21:47.728Z,2.30
2018-07-10T06:24:21.917Z,5.00
2018-07-10T06:26:57.874Z,2.60
2018-07-10T06:29:28.529Z,3.52
2018-07-10T06:31:58.381Z,6.87
2018-07-10T06:34:32.650Z,3.10
2018-07-10T06:37:04.708Z,2.58
2018-07-10T06:39:33.150Z,5.03
2018-07-10T06:42:08.438Z,3.65
2018-07-10T06:44:37.965Z,4.62
2018-07-10T06:47:26.585Z,3.83
2018-07-10T06:49:55.252Z,5.30
2018-07-10T06:52:23.950Z,3.70
2018-07-10T06:55:05.944Z,1.98
2018-07-10T06:57:35.781Z,3.60
2018-07-10T07:00:11.636Z,5.25
2018-07-10T07:02:40.498Z,7.05
2018-07-10T07:05:09.218Z,2.83
2018-07-10T07:07:38.718Z,2.15
2018-07-10T07:10:09.641Z,3.60
2018-07-10T07:12:39.072Z,3.17
2018-07-10T07:15:10.076Z,5.70
2018-07-10T07:17:41.239Z,5.45
2018-07-10T07:20:09.698Z,4.78
2018-07-10T07:22:38.408Z,3.15
2018-07-10T07:25:06.563Z,5.58
2018-07-10T07:27:35.115Z,2.47
2018-07-10T07:30:03.643Z,3.55
2018-07-10T07:32:32.357Z,5.50
2018-07-10T07:35:00.896Z,4.95
2018-07-10T07:37:29.757Z,5.47
2018-07-10T07:39:58.415Z,6.03
2018-07-10T07:42:27.416Z,4.28
2018-07-10T07:44:56.147Z,4.00
2018-07-10T07:47:27.542Z,2.47
2018-07-10T07:49:56.096Z,3.35
2018-07-10T07:52:27.831Z,2.77
2018-07-10T07:54:56.246Z,3.87
2018-07-10T07:57:25.432Z,5.95
2018-07-10T07:59:54.129Z,3.92
2018-07-10T08:02:23.322Z,4.78
2018-07-10T08:04:52.287Z,3.30
2018-07-10T08:07:21.909Z,3.17
2018-07-10T08:09:51.189Z,2.85
2018-07-10T08:12:20.038Z,3.30
2018-07-10T08:14:48.589Z,6.80
2018-07-10T08:17:17.453Z,5.05
2018-07-10T08:19:46.851Z,5.10
2018-07-10T08:22:15.469Z,2.95
2018-07-10T08:24:44.016Z,5.22
2018-07-10T08:27:12.631Z,2.47
2018-07-10T08:29:41.464Z,4.08
2018-07-10T08:32:10.001Z,2.72
2018-07-10T08:34:38.516Z,3.35
2018-07-10T08:37:07.080Z,2.05
2018-07-10T08:39:35.585Z,3.50
2018-07-10T08:42:05.932Z,5.00
2018-07-10T08:44:34.569Z,2.67
2018-07-10T08:47:03.829Z,6.10
2018-07-10T08:49:34.973Z,3.65
2018-07-10T08:52:03.578Z,2.45
2018-07-10T08:54:32.082Z,1.98
2018-07-10T08:57:01.879Z,2.08
2018-07-10T08:59:30.865Z,2.72
2018-07-10T09:01:59.405Z,3.15
2018-07-10T09:04:27.956Z,5.80
2018-07-10T09:06:56.513Z,3.80
2018-07-10T09:09:25.026Z,1.90
2018-07-10T09:11:53.559Z,4.83
2018-07-10T09:14:22.061Z,2.10
2018-07-10T09:16:50.636Z,2.72
2018-07-10T09:19:25.083Z,3.35
2018-07-10T09:21:57.540Z,5.00
2018-07-10T09:24:26.105Z,3.35
2018-07-10T09:26:55.030Z,2.25
2018-07-10T09:29:24.662Z,3.35
2018-07-10T09:31:53.172Z,4.47
2018-07-10T09:34:21.669Z,3.22
2018-07-10T09:36:50.200Z,3.12
2018-07-10T09:39:18.737Z,2.90
2018-07-10T09:41:47.246Z,2.90
2018-07-10T09:44:15.876Z,4.17
2018-07-10T09:46:44.404Z,3.92
2018-07-10T09:49:13.132Z,3.27
2018-07-10T09:51:41.964Z,3.58
2018-07-10T09:54:10.934Z,4.28
2018-07-10T09:56:39.496Z,2.95
2018-07-10T09:59:07.708Z,1.77
2018-07-10T10:01:36.436Z,1.87
2018-07-10T10:04:05.774Z,1.82
2018-07-10T10:06:34.939Z,2.25
2018-07-10T10:09:03.904Z,3.47
2018-07-10T10:11:32.411Z,4.08
2018-07-10T10:14:01.198Z,2.15
2018-07-10T10:16:29.680Z,4.92
2018-07-10T10:18:59.202Z,3.47
2018-07-10T10:21:29.191Z,2.00
2018-07-10T10:23:59.004Z,3.92
2018-07-10T10:26:28.184Z,4.80
2018-07-10T10:28:56.701Z,2.00
2018-07-10T10:31:25.584Z,2.22
2018-07-10T10:33:54.099Z,6.97
2018-07-10T10:36:22.552Z,5.15
2018-07-10T10:38:51.165Z,2.62
2018-07-10T10:41:19.677Z,2.65
2018-07-10T10:43:49.008Z,3.27
2018-07-10T10:46:20.999Z,1.55
2018-07-10T10:48:49.544Z,2.90
2018-07-10T10:51:19.991Z,2.42
2018-07-10T10:53:48.548Z,6.10
2018-07-10T10:56:17.100Z,1.85
2018-07-10T10:58:45.906Z,1.62
2018-07-10T11:01:14.471Z,4.42
2018-07-10T11:03:43.076Z,3.70
2018-07-10T11:06:12.060Z,1.98
2018-07-10T11:08:40.609Z,2.35
2018-07-10T11:11:09.124Z,1.40
2018-07-10T11:13:37.663Z,4.12
2018-07-10T11:16:06.317Z,1.77
2018-07-10T11:18:38.345Z,2.72
2018-07-10T11:21:14.495Z,1.87
2018-07-10T11:24:03.861Z,1.10
2018-07-10T11:26:37.650Z,1.95
2018-07-10T11:29:07.137Z,2.75
2018-07-10T11:31:36.475Z,2.25
2018-07-10T11:34:05.633Z,1.65
2018-07-10T11:36:34.301Z,1.70
2018-07-10T11:39:07.374Z,1.27
2018-07-10T11:41:38.986Z,1.42
2018-07-10T11:44:08.748Z,1.15
2018-07-10T11:46:37.758Z,0.95
2018-07-10T11:49:06.333Z,2.10
2018-07-10T11:51:34.952Z,3.92
2018-07-10T11:54:03.680Z,3.42
2018-07-10T11:56:32.277Z,1.72
2018-07-10T11:59:01.257Z,2.27
2018-07-10T12:01:30.377Z,3.00
2018-07-10T12:03:59.941Z,1.98
2018-07-10T12:06:28.444Z,2.25
2018-07-10T12:08:59.045Z,3.70
2018-07-10T12:11:30.937Z,1.70
2018-07-10T12:13:59.468Z,2.70
2018-07-10T12:16:28.182Z,2.45
2018-07-10T12:18:56.665Z,2.12
2018-07-10T12:21:25.187Z,2.52
2018-07-10T12:23:53.750Z,1.65
2018-07-10T12:26:22.980Z,2.22
2018-07-10T12:28:51.652Z,1.57
2018-07-10T12:31:20.243Z,2.45
2018-07-10T12:33:48.753Z,1.72
2018-07-10T12:36:17.275Z,2.90
2018-07-10T12:38:45.843Z,1.32
2018-07-10T12:41:14.684Z,1.95
2018-07-10T12:43:43.222Z,4.00
2018-07-10T12:46:12.116Z,4.97
2018-07-10T12:48:40.636Z,1.10
2018-07-10T12:51:09.148Z,1.95
2018-07-10T12:53:38.757Z,1.50
2018-07-10T12:56:07.409Z,1.98
2018-07-10T12:58:39.580Z,3.45
2018-07-10T13:01:08.791Z,1.60
2018-07-10T13:03:37.736Z,2.30
2018-07-10T13:06:06.345Z,0.98
2018-07-10T13:08:34.929Z,2.80
2018-07-10T13:11:03.477Z,1.45
2018-07-10T13:13:32.004Z,1.90
2018-07-10T13:16:00.529Z,0.98
2018-07-10T13:18:30.251Z,1.30
2018-07-10T13:20:58.717Z,3.67
2018-07-10T13:23:27.439Z,1.20
2018-07-10T13:25:55.952Z,1.92
2018-07-10T13:28:24.526Z,2.25
2018-07-10T13:30:53.044Z,1.22
2018-07-10T13:33:21.605Z,3.42
2018-07-10T13:35:50.208Z,2.60
2018-07-10T13:38:20.740Z,4.65
2018-07-10T13:40:49.844Z,3.15
2018-07-10T13:43:18.449Z,1.98
2018-07-10T13:45:47.152Z,2.15
2018-07-10T13:48:16.166Z,3.62
2018-07-10T13:50:44.732Z,2.90
2018-07-10T13:53:13.238Z,3.52
2018-07-10T13:55:41.753Z,1.95
2018-07-10T13:58:14.117Z,1.90
2018-07-10T14:00:44.648Z,1.37
2018-07-10T14:03:13.215Z,1.50
2018-07-10T14:05:41.969Z,1.60
2018-07-10T14:08:10.634Z,2.22
2018-07-10T14:10:39.548Z,1.67
2018-07-10T14:13:08.305Z,1.50
2018-07-10T14:15:36.845Z,4.00
2018-07-10T14:18:05.946Z,1.10
2018-07-10T14:20:41.857Z,2.40
2018-07-10T14:23:10.688Z,1.65
2018-07-10T14:25:39.205Z,1.32
2018-07-10T14:28:07.398Z,2.25
2018-07-10T14:30:35.581Z,2.72
2018-07-10T14:33:04.124Z,2.70
2018-07-10T14:35:32.741Z,4.30
2018-07-10T14:38:03.685Z,1.20
2018-07-10T14:40:32.986Z,1.72
2018-07-10T14:43:01.744Z,1.40
2018-07-10T14:45:29.924Z,2.42
2018-07-10T14:47:59.686Z,1.30
2018-07-10T14:50:28.728Z,3.25
2018-07-10T14:52:57.320Z,2.75
2018-07-10T14:55:25.861Z,2.05
2018-07-10T14:57:54.651Z,2.42
2018-07-10T15:00:23.229Z,5.15
2018-07-10T15:02:51.723Z,5.42
2018-07-10T15:05:20.229Z,6.85
2018-07-10T15:07:48.723Z,10.60
2018-07-10T15:10:17.218Z,5.53
2018-07-10T15:12:45.701Z,2.02
2018-07-10T15:15:14.261Z,2.00
2018-07-10T15:17:48.093Z,2.33
2018-07-10T15:20:16.599Z,2.47
2018-07-10T15:22:45.054Z,2.60
2018-07-10T15:25:13.535Z,3.10
2018-07-10T15:27:42.060Z,2.77
2018-07-10T15:30:10.578Z,3.77
2018-07-10T15:32:39.028Z,3.22
2018-07-10T15:35:07.724Z,3.92
2018-07-10T15:37:36.248Z,7.67
2018-07-10T15:40:04.426Z,3.80
2018-07-10T15:42:32.969Z,5.08
2018-07-10T15:45:01.549Z,5.00
2018-07-10T15:47:30.121Z,3.95
2018-07-10T15:49:58.657Z,6.08
2018-07-10T15:52:27.148Z,3.67
2018-07-10T15:54:55.678Z,4.87
2018-07-10T15:57:24.136Z,4.97
2018-07-10T15:59:52.689Z,4.33
2018-07-10T16:02:21.479Z,7.47
2018-07-10T16:04:52.315Z,4.17
2018-07-10T16:07:21.480Z,4.45
2018-07-10T16:09:50.705Z,4.92
2018-07-10T16:12:20.804Z,5.35
2018-07-10T16:14:50.857Z,5.25
2018-07-10T16:17:23.869Z,4.33
2018-07-10T16:20:12.299Z,3.17
2018-07-10T16:22:42.029Z,3.62
2018-07-10T16:25:28.270Z,3.08
2018-07-10T16:27:57.525Z,3.35
2018-07-10T16:30:27.575Z,4.33
2018-07-10T16:32:56.349Z,3.95
2018-07-10T16:35:28.753Z,4.97
2018-07-10T16:37:58.804Z,6.20
2018-07-10T16:40:27.442Z,4.87
2018-07-10T16:42:56.788Z,4.62
2018-07-10T16:45:30.403Z,5.58
2018-07-10T16:48:13.828Z,4.83
2018-07-10T16:50:45.483Z,4.90
2018-07-10T16:53:15.265Z,5.45
2018-07-10T16:55:43.801Z,5.78
2018-07-10T16:58:12.353Z,4.28
2018-07-10T17:00:40.909Z,6.00
2018-07-10T17:03:10.585Z,5.28
2018-07-10T17:05:39.065Z,5.30
2018-07-10T17:08:07.510Z,6.45
2018-07-10T17:10:36.069Z,7.28
2018-07-10T17:13:04.569Z,5.12
2018-07-10T17:15:33.153Z,12.55
2018-07-10T17:18:01.673Z,12.93
2018-07-10T17:20:30.419Z,9.75
2018-07-10T17:22:58.921Z,10.15
2018-07-10T17:25:27.506Z,10.03
2018-07-10T17:27:56.053Z,12.90
2018-07-10T17:30:24.556Z,10.10
2018-07-10T17:32:53.083Z,9.83
2018-07-10T17:35:21.671Z,10.85
2018-07-10T17:37:50.634Z,15.98
2018-07-10T17:40:19.962Z,11.57
2018-07-10T17:42:49.292Z,9.98
2018-07-10T17:45:21.268Z,11.93
2018-07-10T17:47:50.516Z,11.43
2018-07-10T17:50:19.053Z,10.85
2018-07-10T17:52:47.647Z,13.18
2018-07-10T17:55:15.810Z,9.88
2018-07-10T17:57:44.356Z,9.30
2018-07-10T18:00:12.901Z,10.82
2018-07-10T18:02:41.403Z,11.53
2018-07-10T18:05:10.073Z,12.33
2018-07-10T18:07:38.614Z,9.05
2018-07-10T18:10:07.164Z,12.20
2018-07-10T18:12:35.742Z,8.78
2018-07-10T18:15:04.306Z,11.03
2018-07-10T18:17:32.848Z,11.85
2018-07-10T18:20:01.785Z,10.98
2018-07-10T18:22:30.418Z,11.85
2018-07-10T18:24:58.939Z,11.53
2018-07-10T18:27:27.480Z,10.03
2018-07-10T18:29:56.022Z,11.28
2018-07-10T18:32:24.501Z,14.28
2018-07-10T18:34:53.000Z,12.25
2018-07-10T18:37:21.532Z,13.48
2018-07-10T18:39:50.134Z,10.60
2018-07-10T18:42:18.678Z,10.72
2018-07-10T18:44:47.160Z,11.60
2018-07-10T18:47:15.757Z,11.78
2018-07-10T18:49:45.603Z,15.00
2018-07-10T18:52:14.157Z,10.80
2018-07-10T18:54:42.663Z,11.45
2018-07-10T18:57:19.373Z,9.40
2018-07-10T18:59:53.258Z,9.63
2018-07-10T19:02:27.774Z,13.05
2018-07-10T19:05:06.877Z,11.45
2018-07-10T19:07:36.145Z,13.88
2018-07-10T19:10:04.625Z,14.63
2018-07-10T19:12:33.317Z,11.05
2018-07-10T19:15:02.419Z,12.05
2018-07-10T19:17:32.787Z,15.88
2018-07-10T19:20:06.459Z,10.48
2018-07-10T19:22:54.537Z,12.43
2018-07-10T19:25:23.457Z,13.18
2018-07-10T19:27:54.235Z,10.85
2018-07-10T19:30:34.356Z,12.23
2018-07-10T19:33:02.869Z,9.70
2018-07-10T19:35:31.956Z,12.58
2018-07-10T19:38:00.501Z,13.10
2018-07-10T19:40:29.123Z,10.53
2018-07-10T19:42:57.679Z,12.63
2018-07-10T19:45:26.230Z,13.80
2018-07-10T19:47:55.320Z,11.88
2018-07-10T19:50:25.336Z,10.45
2018-07-10T19:52:55.396Z,12.07
2018-07-10T19:55:26.498Z,12.95
2018-07-10T19:57:59.853Z,13.35
2018-07-10T20:00:35.757Z,14.65
2018-07-10T20:03:04.556Z,11.15
2018-07-10T20:05:33.085Z,9.30
2018-07-10T20:08:09.418Z,12.07
2018-07-10T20:10:45.522Z,11.97
2018-07-10T20:13:19.584Z,12.58
2018-07-10T20:15:53.493Z,11.70
2018-07-10T20:19:33.814Z,15.13
2018-07-10T20:22:12.106Z,12.95
2018-07-10T20:24:49.408Z,11.48
2018-07-10T20:27:25.268Z,10.63
2018-07-10T20:30:05.832Z,11.50
2018-07-10T20:33:43.000Z,12.82
2018-07-10T20:36:11.180Z,12.07
2018-07-10T20:38:39.628Z,11.65
2018-07-10T20:41:08.617Z,11.12
2018-07-10T20:43:40.718Z,8.80
2018-07-10T20:46:14.235Z,10.75
2018-07-10T20:48:58.984Z,10.68
2018-07-10T20:51:34.705Z,11.03
2018-07-10T20:54:15.218Z,11.12
2018-07-10T20:58:53.927Z,10.93
2018-07-10T21:01:29.481Z,9.23
2018-07-10T21:04:02.402Z,9.50
2018-07-10T21:06:50.405Z,11.50
2018-07-10T21:09:20.210Z,11.08
2018-07-10T21:12:00.051Z,10.68
2018-07-10T21:15:42.709Z,11.65
2018-07-10T21:18:21.165Z,9.30
2018-07-10T21:21:00.085Z,13.15
2018-07-10T21:24:35.987Z,14.18
2018-07-10T21:27:07.665Z,9.03
2018-07-10T21:29:41.262Z,10.13
2018-07-10T21:32:15.000Z,8.73
2018-07-10T21:34:48.679Z,10.65
2018-07-10T21:38:21.563Z,9.43
2018-07-10T21:41:58.328Z,11.12
2018-07-10T21:45:33.526Z,9.30
2018-07-10T21:48:17.487Z,12.70
2018-07-10T21:50:49.916Z,12.30
2018-07-10T21:53:18.776Z,11.03
2018-07-10T21:55:47.339Z,10.90
2018-07-10T21:58:17.668Z,12.05
2018-07-10T22:00:48.669Z,11.75
2018-07-10T22:03:17.179Z,14.58
2018-07-10T22:05:45.972Z,10.60
2018-07-10T22:08:14.489Z,12.13
2018-07-10T22:10:43.069Z,13.28
2018-07-10T22:13:11.617Z,12.95
2018-07-10T22:15:40.161Z,12.58
2018-07-10T22:18:08.660Z,9.83
2018-07-10T22:20:37.156Z,9.25
2018-07-10T22:23:05.704Z,10.45
2018-07-10T22:25:34.192Z,11.33
2018-07-10T22:28:02.745Z,13.18
2018-07-10T22:30:36.656Z,9.88
2018-07-10T22:33:05.209Z,12.90
2018-07-10T22:35:33.752Z,11.55
2018-07-10T22:38:02.276Z,13.93
2018-07-10T22:40:30.843Z,14.28
2018-07-10T22:42:59.356Z,11.93
2018-07-10T22:45:28.216Z,10.20
2018-07-10T22:47:56.750Z,11.38
2018-07-10T22:50:25.694Z,13.20
2018-07-10T22:52:58.100Z,10.18
2018-07-10T22:55:28.508Z,12.82
2018-07-10T22:58:00.121Z,11.25
2018-07-10T23:00:32.184Z,11.57
2018-07-10T23:03:01.570Z,10.08
2018-07-10T23:05:30.143Z,15.10
2018-07-10T23:07:58.480Z,12.13
2018-07-10T23:10:27.472Z,11.68
2018-07-10T23:12:55.603Z,13.22
2018-07-10T23:15:25.017Z,12.13
2018-07-10T23:17:53.605Z,14.45
2018-07-10T23:20:22.745Z,13.25
2018-07-10T23:22:56.520Z,12.05
2018-07-10T23:25:26.355Z,11.97
2018-07-10T23:27:58.518Z,10.48
2018-07-10T23:30:27.157Z,13.48
2018-07-10T23:32:55.801Z,12.98
2018-07-10T23:35:24.901Z,10.82
2018-07-10T23:37:56.716Z,14.25
2018-07-10T23:40:25.297Z,12.68
2018-07-10T23:42:53.810Z,11.00
2018-07-10T23:45:24.109Z,12.73
2018-07-10T23:47:57.567Z,11.93
2018-07-10T23:50:27.928Z,12.43
2018-07-10T23:53:59.124Z,14.43
2018-07-10T23:56:27.707Z,12.03
2018-07-10T23:58:56.224Z,12.70
